createdAt,value
2022-10-06T00:00:26.944Z,43.02
2022-10-06T00:01:27.002Z,43.51
2022-10-06T00:02:26.970Z,47.21
2022-10-06T00:03:26.908Z,43.83
2022-10-06T00:04:26.885Z,43.67
2022-10-06T00:05:26.886Z,43.34
2022-10-06T00:06:26.876Z,42.54
2022-10-06T00:07:26.846Z,42.22
2022-10-06T00:08:27.224Z,42.38
2022-10-06T00:09:26.816Z,42.86
2022-10-06T00:10:26.813Z,45.12
2022-10-06T00:11:26.815Z,43.51
2022-10-06T00:12:26.784Z,42.54
2022-10-06T00:13:26.769Z,43.51
2022-10-06T00:14:26.747Z,42.70
2022-10-06T00:15:26.857Z,42.54
2022-10-06T00:16:26.738Z,42.54
2022-10-06T00:17:26.719Z,44.63
2022-10-06T00:18:27.133Z,43.51
2022-10-06T00:19:26.688Z,43.18
2022-10-06T00:20:26.668Z,43.51
2022-10-06T00:21:26.679Z,43.02
2022-10-06T00:22:26.638Z,42.54
2022-10-06T00:23:26.640Z,42.54
2022-10-06T00:24:26.647Z,41.89
2022-10-06T00:25:26.617Z,45.60
2022-10-06T00:26:26.614Z,42.22
2022-10-06T00:27:26.609Z,44.31
2022-10-06T00:28:27.025Z,42.54
2022-10-06T00:29:26.554Z,43.18
2022-10-06T00:30:26.545Z,42.70
2022-10-06T00:31:26.575Z,42.06
2022-10-06T00:32:26.521Z,43.51
2022-10-06T00:33:26.501Z,42.06
2022-10-06T00:34:26.481Z,43.02
2022-10-06T00:35:26.470Z,45.92
2022-10-06T00:36:26.487Z,43.18
2022-10-06T00:37:26.461Z,43.34
2022-10-06T00:38:26.891Z,46.73
2022-10-06T00:39:26.413Z,43.51
2022-10-06T00:40:26.402Z,45.44
2022-10-06T00:41:26.392Z,42.86
2022-10-06T00:42:26.389Z,43.99
2022-10-06T00:43:26.362Z,43.02
2022-10-06T00:44:26.341Z,42.06
2022-10-06T00:45:26.332Z,42.70
2022-10-06T00:46:26.406Z,42.54
2022-10-06T00:47:26.329Z,43.34
2022-10-06T00:48:26.710Z,43.34
2022-10-06T00:49:26.280Z,43.34
2022-10-06T00:50:26.264Z,43.67
2022-10-06T00:51:26.253Z,43.99
2022-10-06T00:52:26.254Z,43.51
2022-10-06T00:53:26.223Z,42.70
2022-10-06T00:54:26.212Z,43.83
2022-10-06T00:55:26.204Z,44.63
2022-10-06T00:56:26.181Z,43.02
2022-10-06T00:57:26.186Z,43.02
2022-10-06T00:58:26.533Z,42.86
2022-10-06T00:59:26.146Z,43.18
2022-10-06T01:00:26.140Z,42.06
2022-10-06T01:01:26.148Z,41.73
2022-10-06T01:02:26.173Z,41.09
2022-10-06T01:03:26.092Z,43.99
2022-10-06T01:04:26.076Z,43.99
2022-10-06T01:05:26.069Z,44.15
2022-10-06T01:06:26.045Z,42.54
2022-10-06T01:07:26.047Z,44.31
2022-10-06T01:08:26.330Z,43.02
2022-10-06T01:09:26.005Z,43.67
2022-10-06T01:10:25.995Z,42.22
2022-10-06T01:11:25.976Z,43.34
2022-10-06T01:12:25.991Z,43.02
2022-10-06T01:13:25.946Z,42.70
2022-10-06T01:14:25.939Z,43.51
2022-10-06T01:15:25.936Z,42.86
2022-10-06T01:16:25.916Z,43.83
2022-10-06T01:17:25.897Z,44.31
2022-10-06T01:18:26.207Z,43.51
2022-10-06T01:19:25.867Z,43.34
2022-10-06T01:20:25.855Z,42.22
2022-10-06T01:21:25.869Z,43.02
2022-10-06T01:22:25.830Z,43.02
2022-10-06T01:23:25.817Z,42.06
2022-10-06T01:24:25.798Z,41.89
2022-10-06T01:25:25.797Z,44.63
2022-10-06T01:26:25.787Z,41.89
2022-10-06T01:27:25.768Z,43.02
2022-10-06T01:28:26.233Z,42.06
2022-10-06T01:29:25.742Z,42.22
2022-10-06T01:30:25.719Z,43.83
2022-10-06T01:31:25.756Z,43.51
2022-10-06T01:32:25.697Z,41.73
2022-10-06T01:33:25.679Z,42.54
2022-10-06T01:34:25.667Z,44.15
2022-10-06T01:35:25.660Z,44.79
2022-10-06T01:36:25.651Z,42.86
2022-10-06T01:37:25.629Z,42.06
2022-10-06T01:38:25.954Z,42.54
2022-10-06T01:39:25.604Z,43.83
2022-10-06T01:40:25.590Z,44.15
2022-10-06T01:41:25.597Z,43.67
2022-10-06T01:42:25.562Z,44.63
2022-10-06T01:43:25.549Z,44.15
2022-10-06T01:44:25.531Z,44.79
2022-10-06T01:45:25.521Z,43.99
2022-10-06T01:46:25.579Z,43.99
2022-10-06T01:47:25.491Z,44.15
2022-10-06T01:48:25.998Z,42.54
2022-10-06T01:49:25.471Z,43.83
2022-10-06T01:50:25.454Z,44.63
2022-10-06T01:51:25.453Z,45.12
2022-10-06T01:52:25.422Z,43.67
2022-10-06T01:53:25.412Z,44.63
2022-10-06T01:54:25.392Z,42.54
2022-10-06T01:55:25.382Z,44.15
2022-10-06T01:56:25.383Z,42.86
2022-10-06T01:57:25.360Z,43.02
2022-10-06T01:58:25.566Z,43.99
2022-10-06T01:59:25.324Z,42.86
2022-10-06T02:00:25.313Z,42.70
2022-10-06T02:01:25.400Z,42.22
2022-10-06T02:02:25.284Z,42.06
2022-10-06T02:03:25.274Z,43.83
2022-10-06T02:04:25.309Z,42.38
2022-10-06T02:05:25.252Z,42.22
2022-10-06T02:06:25.275Z,43.83
2022-10-06T02:07:25.223Z,42.86
2022-10-06T02:08:25.520Z,43.34
2022-10-06T02:09:25.197Z,46.08
2022-10-06T02:10:25.175Z,42.54
2022-10-06T02:11:25.183Z,44.47
2022-10-06T02:12:25.145Z,42.70
2022-10-06T02:13:25.136Z,42.54
2022-10-06T02:14:25.126Z,43.99
2022-10-06T02:15:25.125Z,43.18
2022-10-06T02:16:25.189Z,44.47
2022-10-06T02:17:25.086Z,43.18
2022-10-06T02:18:25.249Z,43.34
2022-10-06T02:19:25.057Z,42.86
2022-10-06T02:20:25.047Z,41.89
2022-10-06T02:21:25.056Z,42.22
2022-10-06T02:22:25.019Z,43.18
2022-10-06T02:23:25.007Z,43.51
2022-10-06T02:24:24.987Z,47.53
2022-10-06T02:25:24.985Z,44.79
2022-10-06T02:26:24.977Z,43.02
2022-10-06T02:27:24.951Z,43.99
2022-10-06T02:28:25.020Z,46.89
2022-10-06T02:29:24.917Z,42.86
2022-10-06T02:30:24.907Z,43.99
2022-10-06T02:31:24.996Z,43.67
2022-10-06T02:32:24.877Z,44.63
2022-10-06T02:33:24.871Z,46.73
2022-10-06T02:34:24.853Z,44.79
2022-10-06T02:35:24.841Z,44.31
2022-10-06T02:36:24.838Z,43.83
2022-10-06T02:37:24.819Z,45.12
2022-10-06T02:38:24.974Z,44.31
2022-10-06T02:39:24.789Z,45.44
2022-10-06T02:40:24.771Z,44.47
2022-10-06T02:41:24.790Z,44.63
2022-10-06T02:42:24.749Z,43.99
2022-10-06T02:43:24.730Z,45.92
2022-10-06T02:44:24.719Z,44.31
2022-10-06T02:45:24.711Z,47.21
2022-10-06T02:46:24.756Z,45.60
2022-10-06T02:47:24.682Z,44.31
2022-10-06T02:48:24.701Z,43.51
2022-10-06T02:49:24.661Z,44.63
2022-10-06T02:50:24.640Z,44.79
2022-10-06T02:51:24.648Z,45.28
2022-10-06T02:52:24.601Z,47.21
2022-10-06T02:53:24.601Z,45.12
2022-10-06T02:54:24.581Z,45.44
2022-10-06T02:55:24.582Z,45.44
2022-10-06T02:56:24.574Z,45.12
2022-10-06T02:57:24.543Z,46.08
2022-10-06T02:58:24.627Z,44.47
2022-10-06T02:59:24.520Z,44.96
2022-10-06T03:00:24.502Z,47.05
2022-10-06T03:01:24.573Z,44.96
2022-10-06T03:02:24.599Z,44.63
2022-10-06T03:03:24.463Z,45.28
2022-10-06T03:04:24.446Z,47.37
2022-10-06T03:05:24.440Z,44.79
2022-10-06T03:06:24.445Z,45.12
2022-10-06T03:07:24.403Z,46.89
2022-10-06T03:08:24.393Z,44.47
2022-10-06T03:09:24.394Z,45.60
2022-10-06T03:10:24.364Z,46.08
2022-10-06T03:11:24.354Z,45.60
2022-10-06T03:12:24.354Z,45.60
2022-10-06T03:13:24.572Z,46.57
2022-10-06T03:14:24.316Z,45.76
2022-10-06T03:15:24.305Z,46.08
2022-10-06T03:16:24.305Z,47.05
2022-10-06T03:17:24.293Z,47.37
2022-10-06T03:18:24.255Z,48.02
2022-10-06T03:19:24.250Z,46.08
2022-10-06T03:20:24.235Z,48.34
2022-10-06T03:21:24.216Z,48.18
2022-10-06T03:22:24.490Z,47.53
2022-10-06T03:23:24.194Z,48.34
2022-10-06T03:24:24.166Z,47.86
2022-10-06T03:25:24.167Z,46.89
2022-10-06T03:26:24.146Z,48.02
2022-10-06T03:27:24.157Z,47.70
2022-10-06T03:28:24.199Z,47.70
2022-10-06T03:29:24.106Z,46.57
2022-10-06T03:30:24.097Z,46.89
2022-10-06T03:31:24.123Z,47.21
2022-10-06T03:32:24.091Z,47.86
2022-10-06T03:33:24.056Z,47.86
2022-10-06T03:34:24.038Z,47.21
2022-10-06T03:35:24.028Z,47.86
2022-10-06T03:36:24.009Z,48.18
2022-10-06T03:37:24.020Z,48.02
2022-10-06T03:38:23.979Z,47.53
2022-10-06T03:39:23.978Z,49.15
2022-10-06T03:40:23.959Z,48.34
2022-10-06T03:42:33.830Z,49.15
2022-10-06T03:43:33.808Z,48.50
2022-10-06T03:44:33.790Z,49.15
2022-10-06T03:45:33.792Z,49.47
2022-10-06T03:46:33.807Z,49.95
2022-10-06T03:47:33.768Z,50.60
2022-10-06T03:48:33.749Z,48.34
2022-10-06T03:49:33.729Z,50.11
2022-10-06T03:50:33.709Z,47.53
2022-10-06T03:51:33.699Z,49.31
2022-10-06T03:52:33.692Z,48.02
2022-10-06T03:53:33.673Z,47.37
2022-10-06T03:54:33.652Z,48.50
2022-10-06T03:55:33.664Z,49.15
2022-10-06T03:56:33.623Z,48.66
2022-10-06T03:57:33.633Z,49.63
2022-10-06T03:58:33.592Z,49.31
2022-10-06T03:59:33.589Z,49.95
2022-10-06T04:00:33.595Z,50.11
2022-10-06T04:01:33.643Z,61.55
2022-10-06T04:02:33.563Z,52.69
2022-10-06T04:03:33.532Z,63.33
2022-10-06T04:04:33.515Z,51.24
2022-10-06T04:05:33.510Z,50.76
2022-10-06T04:06:33.485Z,50.27
2022-10-06T04:07:33.494Z,55.43
2022-10-06T04:08:33.660Z,61.39
2022-10-06T04:09:33.451Z,53.33
2022-10-06T04:10:33.435Z,50.11
2022-10-06T04:11:33.424Z,60.26
2022-10-06T04:12:33.414Z,52.21
2022-10-06T04:13:33.398Z,59.30
2022-10-06T04:14:33.374Z,56.07
2022-10-06T04:15:33.439Z,67.35
2022-10-06T04:16:33.447Z,56.24
2022-10-06T04:17:33.362Z,56.24
2022-10-06T04:18:33.325Z,51.72
2022-10-06T04:19:33.318Z,61.55
2022-10-06T04:20:33.297Z,52.05
2022-10-06T04:21:33.287Z,59.14
2022-10-06T04:22:33.289Z,51.40
2022-10-06T04:23:33.264Z,60.59
2022-10-06T04:24:33.246Z,55.75
2022-10-06T04:25:33.227Z,59.78
2022-10-06T04:26:33.215Z,56.56
2022-10-06T04:27:33.216Z,52.05
2022-10-06T04:28:33.748Z,58.49
2022-10-06T04:29:33.176Z,56.56
2022-10-06T04:30:33.157Z,60.59
2022-10-06T04:31:33.246Z,56.40
2022-10-06T04:32:33.146Z,51.08
2022-10-06T04:33:33.118Z,50.27
2022-10-06T04:34:33.106Z,51.08
2022-10-06T04:35:33.097Z,50.11
2022-10-06T04:36:33.079Z,51.08
2022-10-06T04:37:33.079Z,63.65
2022-10-06T04:38:33.347Z,59.14
2022-10-06T04:39:33.036Z,54.95
2022-10-06T04:40:33.027Z,65.26
2022-10-06T04:41:33.012Z,53.82
2022-10-06T04:42:35.286Z,52.21
2022-10-06T04:43:32.982Z,57.04
2022-10-06T04:44:32.979Z,50.76
2022-10-06T04:45:33.075Z,51.08
2022-10-06T04:46:48.500Z,52.69
2022-10-06T04:47:33.940Z,60.26
2022-10-06T04:48:32.923Z,57.36
2022-10-06T04:49:32.899Z,50.76
2022-10-06T04:50:32.890Z,52.53
2022-10-06T04:51:32.871Z,52.69
2022-10-06T04:52:32.879Z,53.82
2022-10-06T04:53:32.849Z,57.36
2022-10-06T04:54:33.920Z,55.75
2022-10-06T04:55:32.827Z,54.30
2022-10-06T04:56:32.803Z,55.11
2022-10-06T04:57:32.809Z,54.62
2022-10-06T04:58:32.900Z,59.78
2022-10-06T04:59:32.761Z,58.81
2022-10-06T05:00:32.763Z,54.62
2022-10-06T05:01:32.733Z,61.07
2022-10-06T05:02:32.797Z,52.21
2022-10-06T05:03:32.709Z,51.56
2022-10-06T05:04:32.703Z,52.69
2022-10-06T05:05:32.681Z,52.37
2022-10-06T05:06:32.692Z,63.33
2022-10-06T05:07:32.652Z,53.17
2022-10-06T05:08:32.924Z,51.88
2022-10-06T05:09:32.622Z,55.75
2022-10-06T05:10:32.622Z,51.88
2022-10-06T05:11:32.594Z,52.53
2022-10-06T05:12:32.603Z,52.85
2022-10-06T05:13:32.573Z,52.69
2022-10-06T05:14:32.562Z,58.17
2022-10-06T05:15:32.553Z,51.88
2022-10-06T05:16:32.578Z,52.21
2022-10-06T05:17:32.537Z,51.88
2022-10-06T05:18:32.548Z,52.69
2022-10-06T05:19:32.486Z,53.01
2022-10-06T05:20:32.473Z,52.53
2022-10-06T05:21:32.464Z,51.72
2022-10-06T05:22:32.464Z,57.36
2022-10-06T05:23:32.435Z,53.82
2022-10-06T05:24:32.426Z,52.69
2022-10-06T05:25:32.403Z,56.72
2022-10-06T05:26:32.396Z,52.37
2022-10-06T05:27:32.397Z,54.30
2022-10-06T05:28:33.010Z,54.30
2022-10-06T05:29:32.354Z,53.33
2022-10-06T05:30:32.341Z,56.88
2022-10-06T05:31:32.370Z,53.82
2022-10-06T05:32:35.944Z,57.04
2022-10-06T05:33:32.300Z,52.69
2022-10-06T05:34:32.286Z,60.59
2022-10-06T05:35:32.266Z,57.52
2022-10-06T05:36:32.255Z,55.43
2022-10-06T05:37:32.255Z,55.43
2022-10-06T05:38:32.621Z,52.85
2022-10-06T05:39:32.214Z,53.82
2022-10-06T05:40:32.206Z,54.95
2022-10-06T05:41:32.185Z,54.14
2022-10-06T05:42:32.196Z,57.20
2022-10-06T05:43:32.176Z,55.43
2022-10-06T05:44:32.146Z,58.97
2022-10-06T05:45:32.192Z,57.52
2022-10-06T05:46:32.138Z,55.11
2022-10-06T05:47:32.117Z,53.50
2022-10-06T05:48:32.481Z,54.30
2022-10-06T05:49:32.075Z,58.81
2022-10-06T05:50:32.072Z,56.24
2022-10-06T05:51:32.047Z,55.91
2022-10-06T05:52:32.056Z,54.30
2022-10-06T05:53:32.019Z,54.62
2022-10-06T05:54:32.009Z,56.07
2022-10-06T05:55:31.987Z,53.01
2022-10-06T05:56:31.988Z,54.14
2022-10-06T05:57:31.989Z,54.79
2022-10-06T05:58:32.184Z,56.40
2022-10-06T05:59:31.938Z,54.30
2022-10-06T06:00:31.933Z,60.26
2022-10-06T06:01:31.940Z,54.30
2022-10-06T06:02:31.991Z,53.01
2022-10-06T06:03:31.899Z,54.14
2022-10-06T06:04:31.869Z,58.81
2022-10-06T06:05:31.858Z,57.20
2022-10-06T06:06:31.848Z,53.33
2022-10-06T06:07:31.842Z,65.74
2022-10-06T06:08:32.279Z,54.14
2022-10-06T06:09:31.800Z,53.33
2022-10-06T06:10:31.789Z,57.52
2022-10-06T06:11:31.773Z,59.94
2022-10-06T06:12:31.781Z,57.52
2022-10-06T06:13:31.750Z,55.59
2022-10-06T06:14:31.739Z,55.75
2022-10-06T06:15:31.721Z,53.33
2022-10-06T06:16:31.755Z,53.33
2022-10-06T06:17:31.700Z,61.07
2022-10-06T06:18:32.033Z,53.01
2022-10-06T06:19:31.663Z,53.98
2022-10-06T06:20:31.659Z,55.43
2022-10-06T06:21:31.632Z,53.98
2022-10-06T06:22:31.649Z,63.81
2022-10-06T06:23:31.613Z,54.95
2022-10-06T06:24:31.600Z,62.68
2022-10-06T06:25:31.582Z,54.14
2022-10-06T06:26:31.575Z,53.98
2022-10-06T06:27:31.563Z,61.39
2022-10-06T06:28:31.908Z,55.75
2022-10-06T06:29:31.532Z,55.43
2022-10-06T06:30:31.512Z,54.79
2022-10-06T06:31:31.582Z,57.20
2022-10-06T06:32:31.515Z,56.07
2022-10-06T06:33:31.474Z,55.75
2022-10-06T06:34:31.463Z,61.39
2022-10-06T06:35:31.443Z,60.10
2022-10-06T06:36:31.443Z,53.66
2022-10-06T06:37:31.455Z,66.23
2022-10-06T06:38:31.929Z,63.97
2022-10-06T06:39:31.402Z,57.52
2022-10-06T06:40:31.374Z,53.50
2022-10-06T06:41:31.364Z,53.17
2022-10-06T06:42:31.375Z,52.85
2022-10-06T06:43:31.844Z,53.33
2022-10-06T06:44:31.324Z,59.94
2022-10-06T06:45:31.304Z,56.07
2022-10-06T06:46:31.486Z,53.82
2022-10-06T06:47:31.294Z,57.20
2022-10-06T06:48:31.778Z,60.26
2022-10-06T06:49:31.256Z,58.97
2022-10-06T06:50:31.250Z,63.00
2022-10-06T06:51:31.224Z,59.14
2022-10-06T06:52:31.235Z,60.75
2022-10-06T06:53:31.194Z,60.10
2022-10-06T06:54:31.186Z,58.97
2022-10-06T06:55:31.165Z,63.16
2022-10-06T06:56:31.157Z,59.46
2022-10-06T06:57:31.156Z,61.71
2022-10-06T06:58:31.646Z,60.26
2022-10-06T06:59:31.116Z,61.23
2022-10-06T07:00:35.899Z,58.97
2022-10-06T07:01:32.147Z,59.30
2022-10-06T07:02:31.132Z,61.07
2022-10-06T07:03:56.134Z,59.14
2022-10-06T07:04:32.054Z,60.59
2022-10-06T07:05:31.034Z,60.59
2022-10-06T07:06:31.040Z,59.46
2022-10-06T07:07:31.017Z,60.59
2022-10-06T07:08:31.438Z,60.10
2022-10-06T07:09:30.977Z,58.01
2022-10-06T07:10:30.967Z,59.78
2022-10-06T07:11:30.958Z,50.60
2022-10-06T07:12:30.936Z,51.88
2022-10-06T07:13:30.919Z,52.21
2022-10-06T07:14:30.927Z,50.76
2022-10-06T07:15:30.915Z,52.21
2022-10-06T07:16:30.917Z,53.17
2022-10-06T07:17:30.868Z,52.37
2022-10-06T07:18:31.360Z,51.88
2022-10-06T07:19:30.839Z,56.88
2022-10-06T07:20:30.828Z,52.85
2022-10-06T07:21:30.833Z,64.61
2022-10-06T07:22:30.799Z,49.31
2022-10-06T07:23:30.788Z,49.79
2022-10-06T07:24:30.779Z,65.74
2022-10-06T07:25:30.789Z,52.05
2022-10-06T07:26:30.770Z,50.76
2022-10-06T07:27:30.730Z,58.97
2022-10-06T07:28:30.867Z,53.98
2022-10-06T07:29:30.709Z,49.47
2022-10-06T07:30:30.690Z,52.21
2022-10-06T07:31:30.740Z,67.19
2022-10-06T07:32:30.683Z,50.76
2022-10-06T07:33:30.650Z,58.65
2022-10-06T07:34:30.674Z,50.43
2022-10-06T07:35:30.621Z,53.17
2022-10-06T07:36:30.612Z,63.49
2022-10-06T07:37:30.611Z,49.79
2022-10-06T07:38:30.592Z,52.53
2022-10-06T07:39:30.581Z,50.11
2022-10-06T07:40:30.551Z,58.97
2022-10-06T07:41:30.543Z,50.43
2022-10-06T07:42:30.551Z,58.49
2022-10-06T07:43:30.513Z,49.31
2022-10-06T07:44:30.502Z,59.78
2022-10-06T07:45:30.523Z,53.01
2022-10-06T07:46:30.482Z,63.49
2022-10-06T07:47:30.473Z,52.37
2022-10-06T07:48:30.453Z,61.71
2022-10-06T07:49:30.434Z,49.31
2022-10-06T07:50:30.423Z,50.11
2022-10-06T07:51:30.403Z,53.66
2022-10-06T07:52:30.416Z,53.66
2022-10-06T07:53:30.379Z,55.43
2022-10-06T07:54:30.371Z,52.69
2022-10-06T07:55:30.353Z,52.85
2022-10-06T07:56:30.346Z,49.63
2022-10-06T07:57:30.342Z,48.34
2022-10-06T07:58:30.314Z,60.75
2022-10-06T07:59:30.297Z,54.62
2022-10-06T08:00:30.337Z,51.08
2022-10-06T08:01:30.328Z,49.15
2022-10-06T08:02:33.079Z,50.43
2022-10-06T08:03:31.248Z,68.96
2022-10-06T08:04:30.237Z,51.24
2022-10-06T08:05:30.215Z,51.40
2022-10-06T08:06:30.205Z,49.79
2022-10-06T08:07:30.206Z,56.24
2022-10-06T08:08:30.206Z,51.88
2022-10-06T08:09:30.155Z,57.04
2022-10-06T08:10:30.148Z,53.82
2022-10-06T08:11:30.136Z,50.76
2022-10-06T08:12:30.136Z,59.30
2022-10-06T08:13:30.107Z,52.37
2022-10-06T08:14:30.096Z,51.40
2022-10-06T08:15:30.077Z,58.17
2022-10-06T08:16:30.364Z,47.37
2022-10-06T08:17:30.057Z,45.60
2022-10-06T08:18:47.027Z,49.47
2022-10-06T08:19:31.027Z,47.37
2022-10-06T08:20:30.018Z,48.50
2022-10-06T08:21:29.999Z,48.82
2022-10-06T08:22:30.012Z,45.92
2022-10-06T08:23:29.967Z,50.27
2022-10-06T08:24:37.844Z,48.02
2022-10-06T08:25:30.941Z,48.98
2022-10-06T08:26:29.939Z,56.40
2022-10-06T08:27:29.928Z,49.31
2022-10-06T08:28:29.982Z,55.59
2022-10-06T08:29:29.889Z,46.89
2022-10-06T08:30:29.878Z,53.66
2022-10-06T08:31:29.928Z,59.94
2022-10-06T08:32:29.881Z,52.05
2022-10-06T08:33:29.829Z,48.02
2022-10-06T08:34:29.820Z,59.30
2022-10-06T08:35:29.811Z,51.24
2022-10-06T08:36:32.363Z,48.50
2022-10-06T08:37:29.814Z,46.73
2022-10-06T08:38:29.770Z,47.86
2022-10-06T08:39:29.751Z,52.37
2022-10-06T08:40:29.740Z,45.12
2022-10-06T08:41:29.723Z,46.25
2022-10-06T08:42:29.730Z,46.25
2022-10-06T08:43:29.700Z,47.53
2022-10-06T08:44:29.692Z,47.37
2022-10-06T08:45:29.685Z,48.66
2022-10-06T08:46:29.659Z,50.11
2022-10-06T08:47:29.733Z,56.88
2022-10-06T08:48:29.631Z,49.95
2022-10-06T08:49:29.620Z,48.50
2022-10-06T08:50:29.606Z,46.25
2022-10-06T08:51:29.592Z,51.40
2022-10-06T08:52:29.592Z,51.24
2022-10-06T08:53:29.570Z,62.04
2022-10-06T08:54:29.550Z,53.17
2022-10-06T08:55:29.540Z,47.21
2022-10-06T08:56:29.523Z,46.08
2022-10-06T08:57:29.531Z,59.14
2022-10-06T08:58:29.494Z,55.43
2022-10-06T08:59:29.485Z,54.79
2022-10-06T09:00:29.474Z,61.55
2022-10-06T09:01:29.517Z,44.96
2022-10-06T09:02:29.641Z,46.57
2022-10-06T09:03:29.432Z,45.92
2022-10-06T09:04:29.414Z,46.57
2022-10-06T09:05:29.404Z,48.66
2022-10-06T09:06:29.385Z,58.65
2022-10-06T09:07:29.394Z,51.08
2022-10-06T09:08:29.365Z,47.37
2022-10-06T09:09:29.346Z,52.53
2022-10-06T09:10:29.338Z,46.08
2022-10-06T09:11:29.316Z,49.79
2022-10-06T09:12:29.317Z,59.30
2022-10-06T09:13:29.295Z,51.08
2022-10-06T09:14:29.276Z,55.27
2022-10-06T09:15:29.267Z,48.02
2022-10-06T09:16:29.276Z,47.37
2022-10-06T09:17:29.256Z,48.66
2022-10-06T09:18:49.024Z,48.82
2022-10-06T09:19:33.615Z,48.34
2022-10-06T09:20:29.197Z,47.37
2022-10-06T09:21:29.188Z,46.57
2022-10-06T09:22:29.190Z,49.15
2022-10-06T09:23:29.159Z,48.66
2022-10-06T09:24:29.139Z,49.63
2022-10-06T09:25:29.132Z,53.33
2022-10-06T09:26:29.146Z,48.34
2022-10-06T09:27:29.119Z,52.21
2022-10-06T09:28:29.173Z,48.66
2022-10-06T09:29:29.079Z,53.98
2022-10-06T09:30:29.061Z,47.21
2022-10-06T09:31:29.145Z,52.05
2022-10-06T09:32:29.049Z,49.47
2022-10-06T09:33:29.028Z,48.34
2022-10-06T09:34:29.007Z,48.66
2022-10-06T09:35:28.991Z,50.11
2022-10-06T09:36:28.981Z,48.66
2022-10-06T09:37:28.988Z,50.76
2022-10-06T09:38:28.951Z,46.89
2022-10-06T09:39:28.940Z,53.98
2022-10-06T09:40:28.930Z,48.66
2022-10-06T09:42:27.227Z,48.18
2022-10-06T09:43:27.180Z,44.31
2022-10-06T09:44:27.259Z,46.25
2022-10-06T09:45:27.156Z,55.59
2022-10-06T09:46:27.471Z,72.67
2022-10-06T09:47:27.145Z,50.60
2022-10-06T09:48:27.123Z,59.78
2022-10-06T09:49:27.101Z,46.25
2022-10-06T09:50:27.089Z,44.79
2022-10-06T09:51:27.068Z,55.75
2022-10-06T09:52:27.080Z,45.76
2022-10-06T09:53:27.042Z,48.02
2022-10-06T09:54:27.036Z,45.60
2022-10-06T09:55:27.017Z,46.57
2022-10-06T09:56:27.060Z,46.57
2022-10-06T09:57:27.009Z,57.85
2022-10-06T09:58:26.981Z,46.57
2022-10-06T09:59:26.968Z,47.05
2022-10-06T10:00:26.955Z,58.97
2022-10-06T10:01:26.994Z,48.66
2022-10-06T10:02:26.971Z,58.97
2022-10-06T10:03:26.914Z,49.95
2022-10-06T10:04:26.900Z,54.79
2022-10-06T10:05:26.881Z,59.94
2022-10-06T10:06:26.871Z,58.81
2022-10-06T10:07:26.873Z,52.37
2022-10-06T10:08:26.874Z,57.69
2022-10-06T10:09:26.830Z,56.56
2022-10-06T10:10:26.823Z,48.50
2022-10-06T10:11:26.804Z,61.71
2022-10-06T10:12:26.823Z,48.82
2022-10-06T10:13:26.781Z,51.24
2022-10-06T10:14:26.762Z,49.31
2022-10-06T10:15:26.744Z,55.11
2022-10-06T10:16:26.815Z,49.15
2022-10-06T10:17:26.734Z,49.15
2022-10-06T10:18:26.778Z,46.57
2022-10-06T10:19:26.694Z,43.99
2022-10-06T10:20:26.684Z,45.60
2022-10-06T10:21:26.664Z,56.07
2022-10-06T10:22:26.675Z,45.28
2022-10-06T10:23:31.147Z,51.24
2022-10-06T10:24:27.624Z,46.73
2022-10-06T10:25:26.606Z,46.57
2022-10-06T10:26:26.595Z,45.28
2022-10-06T10:27:26.604Z,45.76
2022-10-06T10:28:26.625Z,48.02
2022-10-06T10:29:29.307Z,50.76
2022-10-06T10:30:27.546Z,52.69
2022-10-06T10:31:26.600Z,47.05
2022-10-06T10:32:26.536Z,55.59
2022-10-06T10:33:26.657Z,53.98
2022-10-06T10:34:26.494Z,73.32
2022-10-06T10:35:26.478Z,53.66
2022-10-06T10:36:26.489Z,52.37
2022-10-06T10:37:26.450Z,52.05
2022-10-06T10:38:26.438Z,51.72
2022-10-06T10:39:26.421Z,51.72
2022-10-06T10:40:26.409Z,53.98
2022-10-06T10:41:26.398Z,61.39
2022-10-06T10:42:26.409Z,49.95
2022-10-06T10:43:26.369Z,56.40
2022-10-06T10:44:26.359Z,54.62
2022-10-06T10:45:26.349Z,47.53
2022-10-06T10:46:26.431Z,59.94
2022-10-06T10:47:26.330Z,47.37
2022-10-06T10:48:26.300Z,54.62
2022-10-06T10:49:26.290Z,48.82
2022-10-06T10:50:26.270Z,60.26
2022-10-06T10:51:26.268Z,51.24
2022-10-06T10:52:26.261Z,49.15
2022-10-06T10:53:26.240Z,46.08
2022-10-06T10:54:26.218Z,45.76
2022-10-06T10:55:26.210Z,50.11
2022-10-06T10:56:26.193Z,54.46
2022-10-06T10:57:26.193Z,57.69
2022-10-06T10:58:26.164Z,52.53
2022-10-06T10:59:26.153Z,60.75
2022-10-06T11:00:26.161Z,52.85
2022-10-06T11:01:26.132Z,62.84
2022-10-06T11:02:26.133Z,49.95
2022-10-06T11:03:26.103Z,55.11
2022-10-06T11:04:26.083Z,59.78
2022-10-06T11:05:28.297Z,53.98
2022-10-06T11:06:26.054Z,48.34
2022-10-06T11:07:26.054Z,49.63
2022-10-06T11:08:26.035Z,59.94
2022-10-06T11:09:26.015Z,47.05
2022-10-06T11:10:26.105Z,47.86
2022-10-06T11:11:25.996Z,50.76
2022-10-06T11:12:25.986Z,54.79
2022-10-06T11:13:25.961Z,54.62
2022-10-06T11:14:25.946Z,57.04
2022-10-06T11:15:25.937Z,48.34
2022-10-06T11:16:25.995Z,59.78
2022-10-06T11:17:25.908Z,51.08
2022-10-06T11:18:25.897Z,53.33
2022-10-06T11:19:25.879Z,50.43
2022-10-06T11:20:25.859Z,48.98
2022-10-06T11:21:25.868Z,57.52
2022-10-06T11:22:25.840Z,47.21
2022-10-06T11:23:25.829Z,58.01
2022-10-06T11:24:25.811Z,57.85
2022-10-06T11:25:25.809Z,57.20
2022-10-06T11:26:25.801Z,54.62
2022-10-06T11:27:25.775Z,57.36
2022-10-06T11:28:25.816Z,55.27
2022-10-06T11:29:25.752Z,58.97
2022-10-06T11:30:25.733Z,56.88
2022-10-06T11:31:25.773Z,48.18
2022-10-06T11:32:25.705Z,59.94
2022-10-06T11:33:25.697Z,50.27
2022-10-06T11:34:25.685Z,51.40
2022-10-06T11:35:25.676Z,48.02
2022-10-06T11:36:25.673Z,52.69
2022-10-06T11:37:25.646Z,58.97
2022-10-06T11:38:25.633Z,48.34
2022-10-06T11:39:25.627Z,52.05
2022-10-06T11:40:25.597Z,47.53
2022-10-06T11:41:25.621Z,61.71
2022-10-06T11:42:25.636Z,50.76
2022-10-06T11:43:25.568Z,55.75
2022-10-06T11:44:25.550Z,51.72
2022-10-06T11:45:25.541Z,57.69
2022-10-06T11:46:29.672Z,52.05
2022-10-06T11:47:35.177Z,59.30
2022-10-06T11:48:26.501Z,51.72
2022-10-06T11:49:25.493Z,56.56
2022-10-06T11:50:25.478Z,54.95
2022-10-06T11:51:25.477Z,51.88
2022-10-06T11:52:25.462Z,60.26
2022-10-06T11:53:25.444Z,55.91
2022-10-06T11:54:25.423Z,59.30
2022-10-06T11:55:25.414Z,49.47
2022-10-06T11:56:25.403Z,47.05
2022-10-06T11:57:30.667Z,57.04
2022-10-06T11:58:42.756Z,55.91
2022-10-06T11:59:26.365Z,47.21
2022-10-06T12:00:25.347Z,56.24
2022-10-06T12:01:25.335Z,45.44
2022-10-06T12:02:25.489Z,46.73
2022-10-06T12:03:25.354Z,47.21
2022-10-06T12:04:25.297Z,55.59
2022-10-06T12:06:26.288Z,65.90
2022-10-06T12:07:25.269Z,61.71
2022-10-06T12:08:25.248Z,52.05
2022-10-06T12:09:25.241Z,45.44
2022-10-06T12:10:25.219Z,49.79
2022-10-06T12:11:25.231Z,53.82
2022-10-06T12:12:25.198Z,44.63
2022-10-06T12:14:26.650Z,60.42
2022-10-06T12:16:00.197Z,55.11
2022-10-06T12:17:26.132Z,55.91
2022-10-06T12:18:25.115Z,60.91
2022-10-06T12:19:25.120Z,58.49
2022-10-06T12:20:25.093Z,48.66
2022-10-06T12:21:25.106Z,57.52
2022-10-06T12:22:25.075Z,56.24
2022-10-06T12:23:25.055Z,57.04
2022-10-06T12:24:25.046Z,49.95
2022-10-06T12:25:25.061Z,51.56
2022-10-06T12:26:25.035Z,47.37
2022-10-06T12:27:26.054Z,59.30
2022-10-06T12:28:25.027Z,48.02
2022-10-06T12:29:24.988Z,49.31
2022-10-06T12:30:24.981Z,50.11
2022-10-06T12:31:25.017Z,54.46
2022-10-06T12:32:24.939Z,58.81
2022-10-06T12:33:24.929Z,65.26
2022-10-06T12:34:24.916Z,50.43
2022-10-06T12:35:24.938Z,61.55
2022-10-06T12:36:24.910Z,58.01
2022-10-06T12:37:24.889Z,63.33
2022-10-06T12:38:24.861Z,52.05
2022-10-06T12:39:24.878Z,51.88
2022-10-06T12:40:24.835Z,48.34
2022-10-06T12:41:24.831Z,46.08
2022-10-06T12:42:24.833Z,46.73
2022-10-06T12:43:24.801Z,45.60
2022-10-06T12:44:24.802Z,60.26
2022-10-06T12:45:24.784Z,57.04
2022-10-06T12:46:24.797Z,51.08
2022-10-06T12:47:24.773Z,48.18
2022-10-06T12:48:24.725Z,55.59
2022-10-06T12:49:24.723Z,50.60
2022-10-06T12:50:24.710Z,45.12
2022-10-06T12:51:24.750Z,48.50
2022-10-06T12:52:24.676Z,50.76
2022-10-06T12:53:24.667Z,55.91
2022-10-06T12:54:24.648Z,54.62
2022-10-06T12:55:24.638Z,50.76
2022-10-06T12:56:24.637Z,45.44
2022-10-06T12:57:24.609Z,48.34